Results by/Résultats par Info:[email protected] Phone: (613)260-0994

                                    K-TOWN TRIATHLON

                                Sunday August 3th, 2003

                         Confederation Park, Kingston, Ontario

                        Overall Results - Long Course Triathlon

  -----FINAL----- ----------------------- ------------ ------------------- -----          2 km                       56.5 km                   15 km
                                                       Category                   ------SWIM + T1-------    ----------BIKE--------    -------RUN + T2--------   MINUS
    Pos     Time  Name                    City         Plc/Total Category     #    Cat  Ovr  Time  /100m     Cat Ovr Time  km/hr      Cat  Ovr  Time     km     BRIDGE
  ------  ------- ----------------------- ------------ ------------------- -----  ----------------------    ----------------------    -----------------------  --------
    1     2:51:21 Rick Hellard            Ottawa       1/3   Elite Men      76    2      4   27:43  1:24    1      1 1:25:30  39.7     2      3   58:09  3:53         
    2     2:56:38 Colin Ward              Kingston     2/3   Elite Men      70    3      8   30:01  1:31    3      4 1:29:33  37.9     1      2   57:04  3:49         
    3     2:56:55 Ka-Yu Law               Kingston     3/3   Elite Men      59    1      1   27:25  1:23    2      2 1:25:54  39.5     3     12 1:03:37  4:15         
    4     2:59:08 Allan Faulds            Frankford    1/24  M35 - 39       73    1     20   31:28  1:35    1      8 1:31:53  36.9     1      1   55:49  3:44         
    5     3:05:14 Chris Kennedy           Markham      1/13  M25 - 29       75    1      5   27:57  1:24    1      7 1:31:50  36.9     2     19 1:05:28  4:22         
    6     3:05:36 Clive Morgan            Yarker       1/24  M40 - 44       20    1      6   28:03  1:25    3     16 1:34:09  36.0     2     11 1:03:26  4:14         
    7     3:06:12 Jeff Walsh              Belleville   1/18  M30 - 34       87    5     32   33:29  1:41    2      9 1:32:07  36.8     2      6 1:00:37  4:03         
    8     3:06:42 Chris Milburn           Kingston     2/18  M30 - 34       48    4     29   33:03  1:40    1      5 1:29:55  37.7     3     13 1:03:44  4:15         
    9     3:08:07 Sheila Kealey           Ottawa       1/4   Elite Women   106    4     23   31:56  1:36    1     13 1:33:27  36.3     1      8 1:02:44  4:11         
   10     3:08:38 Steven Blostein         Kingston     2/24  M40 - 44       61    3     12   30:30  1:32    4     17 1:34:11  36.0     3     16 1:03:57  4:16         
   11     3:08:45 Michael Adamcryck       Kingston     3/18  M30 - 34      171    6     42   34:12  1:43    5     28 1:35:40  35.4     1      4   58:54  3:56         
   12     3:09:58 Erin Hawes              Ottawa       2/4   Elite Women   158    1      2   27:32  1:23    3     41 1:38:31  34.4     2     15 1:03:56  4:16         
   13     3:10:27 Tom Stiene              Bradford     3/24  M40 - 44      160    6     19   31:26  1:35    2      6 1:30:20  37.5     7     29 1:08:41  4:35         
   14     3:10:44 Steve Whitmore          London       4/24  M40 - 44     1046    4     14   30:42  1:33    6     24 1:35:20  35.6     4     18 1:04:43  4:19         
   15     3:10:49 Julie Curwin            kingston     3/4   Elite Women    49    3      9   30:08  1:31    2     19 1:34:44  35.8     3     20 1:05:58  4:24         
   16     3:11:51 Paul Turner             Ottawa       1/18  M45 - 49      132    4     28   32:39  1:38    4     34 1:37:30  34.8     1      7 1:01:43  4:07         
   17     3:12:37 Arvids Silis            North York   2/18  M45 - 49       15    1      7   28:25  1:26    9     56 1:40:58  33.6     2      9 1:03:14  4:13         
   18     3:12:40 Mark Ryan               Kingston     5/24  M40 - 44       67    2     11   30:27  1:32    11    44 1:38:49  34.3     1     10 1:03:25  4:14         
   19     3:14:19 John Boffin             Mississaug   2/24  M35 - 39      151    2     38   33:48  1:42    2     11 1:32:38  36.6     3     26 1:07:54  4:32         
   20     3:14:28 Kelly Brandson          Whitby       3/18  M45 - 49      174    3     27   32:31  1:38    2     18 1:34:30  35.9     3     23 1:07:27  4:30         
   21     3:15:05 Bruce Burns             Nepean       1/16  M50 - 54      143    2     48   35:04  1:46    1     14 1:33:57  36.1     1     21 1:06:06  4:25         
   22     3:16:27 Peter Hamilton          Ottawa       6/24  M40 - 44      177    11    94   39:41  2:00    1      3 1:28:53  38.1     5     25 1:07:53  4:32         
   23     3:16:48 Doug Sutherland         Peterborou   7/24  M40 - 44      104    5     17   31:18  1:34    9     33 1:37:16  34.9     6     28 1:08:15  4:33         
   24     3:16:52 Kevin Malloy            Ottawa       3/24  M35 - 39      148    6     54   36:02  1:49    8     51 1:40:15  33.8     2      5 1:00:36  4:03         
   25     3:17:13 Andrew Milne            Ottawa       2/13  M25 - 29       88    2     24   32:20  1:37    3     32 1:36:59  35.0     4     27 1:07:55  4:32         
   26     3:17:21 Paul Monroe             Wolfe Isla   4/18  M45 - 49      138    8     44   34:22  1:44    3     26 1:35:26  35.5     4     24 1:07:33  4:31         
   27     3:18:20 Cheryl Kemp             Orleans      1/11  W35 - 39      152    4     40   34:00  1:42    3     50 1:39:58  33.9     1     17 1:04:22  4:18         
   28     3:18:46 Jessica Kirkwood        Newmarket    4/4   Elite Women   119    2      3   27:40  1:23    4     52 1:40:15  33.8     4     36 1:10:52  4:44         
   29     3:20:37 Anne Nicolussi          London       2/11  W35 - 39       79    3     15   30:43  1:33    1     36 1:38:07  34.6     2     38 1:11:47  4:48         
   30     3:23:08 Kevin Hall              Kingston     5/18  M45 - 49       69    5     31   33:18  1:40    1     15 1:33:57  36.1     8     57 1:15:55  5:04         
   31     3:24:35 Stephen Hinton          Kinston      8/24  M40 - 44        8    7     37   33:47  1:42    7     27 1:35:38  35.5     10    55 1:15:10  5:01         
   32     3:24:58 Kevin Maier             Manlius      6/18  M45 - 49       65    9     45   34:26  1:44    6     38 1:38:11  34.5     7     42 1:12:22  4:50         
   33     3:25:26 John McKinnon           Toronto      7/18  M45 - 49       62    6     39   33:56  1:42    7     54 1:40:36  33.7     5     37 1:10:55  4:44         
   34     3:25:40 Jeff Flanagan           Toronto      4/18  M30 - 34       35    7     55   36:04  1:49    4     21 1:35:06  35.7     5     52 1:14:30  4:58         
   35     3:26:22 Barb Pulfer             Ottawa       3/11  W35 - 39      122    1     10   30:11  1:31    2     43 1:38:47  34.3     5     66 1:17:25  5:10         
   36     3:26:40 Rudy Hollywood          Nepean       1/5   M55 - 59      184    1     36   33:44  1:42    1     46 1:39:16  34.2     2     47 1:13:41  4:55         
   37     3:27:04 Kristian Clarke         Toronto      5/18  M30 - 34      186    1     16   30:50  1:33    6     29 1:36:22  35.2     7     80 1:19:53  5:20         
   38     3:27:05 Jean-Pierre Thibault    Ottawa       3/13  M25 - 29      129    13   150   47:12  2:22    2     10 1:32:27  36.7     3     22 1:07:26  4:30         
   39     3:27:50 John Zahab              Ottawa       6/18  M30 - 34       29    14   131   44:32  2:14    3     12 1:33:05  36.4     4     33 1:10:14  4:41         
   40     3:28:55 Joanne Miller           Oakville     1/6   W40 - 44      116    1     43   34:13  1:43    2     68 1:42:42  33.0     1     40 1:12:01  4:49         
   41     3:29:30 Stephen Hanlon          Mississaug   4/24  M35 - 39      131    12    69   37:36  1:53    11    63 1:42:14  33.2     4     31 1:09:41  4:39         
   42     3:30:49 John Murray             Burlington   5/24  M35 - 39      191    4     52   35:59  1:48    3     22 1:35:09  35.6     11    77 1:19:42  5:19         
   43     3:30:56 David Brown             Kanata       6/24  M35 - 39      108    8     62   36:54  1:51    7     48 1:39:43  34.0     8     51 1:14:20  4:58         
   44     3:31:00 Juergen Dingel          Kingston     7/24  M35 - 39      115                                                         24                             
   45     3:31:54 Taya Johnston           Richmond H   1/9   W25 - 29      188    2     30   33:14  1:40    4    118 1:49:07  31.1     1     30 1:09:34  4:39         
   46     3:32:02 Beth Bissell            Richmond H   2/9   W25 - 29      109    5     51   35:39  1:47    1     42 1:38:37  34.4     2     67 1:17:47  5:12         
   47     3:32:19 Lynn Fye                Manlius      4/11  W35 - 39       47    2     13   30:40  1:32    6    106 1:47:22  31.6     3     50 1:14:19  4:58         
   48     3:33:05 John Garey              Richmond H   8/24  M35 - 39      136    10    66   37:28  1:53    10    60 1:41:42  33.3     7     48 1:13:55  4:56         
   49     3:33:41 James Capisciolto       Toronto      4/13  M25 - 29       31    9     92   39:21  1:59    12   131 1:50:28  30.7     1     14 1:03:53  4:16         
   50     3:33:48 Cathy Bodnoff           Ottawa       2/6   W40 - 44      117    3     84   38:31  1:56    1     62 1:42:03  33.2     2     45 1:13:15  4:53         
   51     3:33:53 Geoff Giroux            Windsor      5/13  M25 - 29       37    4     56   36:06  1:49    6     66 1:42:30  33.1     6     56 1:15:18  5:02         
   52     3:33:59 John Salt               London       2/16  M50 - 54       93    3     85   38:45  1:57    2     37 1:38:09  34.5     3     63 1:17:05  5:09         
   53     3:35:27 Spencer Lavis           Newmarket    9/24  M35 - 39      112    13    71   37:39  1:53    4     23 1:35:19  35.6     14    95 1:22:31  5:31         
   54     3:35:34 Alan Chud               Markham      9/24  M40 - 44       18    10    89   39:10  1:58    13    75 1:43:26  32.8     9     43 1:12:59  4:52         
   55     3:35:38 Ross Bell               Elizabetht   8/18  M45 - 49       30    2     21   31:41  1:36    10    64 1:42:18  33.1     12    90 1:21:40  5:27         
   56     3:35:52 Tom Simper              Gloucester   3/16  M50 - 54       36    1     34   33:38  1:41    7     91 1:45:20  32.2     2     62 1:16:55  5:08         
   57     3:35:58 Corry Burke             Ottawa       7/18  M30 - 34       77    2     18   31:21  1:35    9     59 1:41:41  33.3     9     97 1:22:57  5:32         
   58     3:35:58 Andrew Jones            Kanata       8/18  M30 - 34       11    3     26   32:24  1:38    7     31 1:36:59  35.0     11   117 1:26:36  5:47         
   59     3:36:34 Lou Laflamme            Ottawa      10/24  M35 - 39       66    18   103   40:54  2:03    16    79 1:43:51  32.6     6     39 1:11:50  4:48         
   60     3:36:37 Joanna Jackson          Millgrove    1/4   W20 - 24       34    1     46   34:52  1:45    1     99 1:46:44  31.8     1     53 1:15:03  5:01         
   61     3:36:41 Guy Armstrong           Barrie       9/18  M45 - 49      181    10    49   35:05  1:46    5     35 1:37:43  34.7     13   101 1:23:55  5:36         
   62     3:37:11 Tim Gordon              London       6/13  M25 - 29      168    6     72   37:53  1:54    5     58 1:41:25  33.4     8     68 1:17:54  5:12         
   63     3:37:33 Andrew Harrington       Brantford   11/24  M35 - 39      128    3     50   35:24  1:47    13    67 1:42:34  33.1     10    76 1:19:35  5:19         
   64     3:37:38 Chris Grimwood          Kingston     7/13  M25 - 29       60    5     61   36:43  1:51    8     86 1:44:36  32.4     7     60 1:16:19  5:06         
   65     3:37:48 Brian Shilton           London      12/24  M35 - 39       63    17   102   40:49  2:03    18    96 1:46:13  31.9     5     35 1:10:47  4:44         
   66     3:39:06 Jeff Musson             Trenton     13/24  M35 - 39       68    11    67   37:32  1:53    5     25 1:35:22  35.6     15   114 1:26:13  5:45         
   67     3:40:18 Seamus Ryan             Kingston    10/24  M40 - 44       80    15   107   41:25  2:05    18   112 1:48:09  31.4     8     34 1:10:45  4:43         
   68     3:40:31 Alain Dube              Ottawa       8/13  M25 - 29       23    3     47   34:56  1:45    4     45 1:39:07  34.2     12   115 1:26:29  5:46         
   69     3:41:03 Maurice Gallagher       WestHill    11/24  M40 - 44      185    21   144   46:10  2:19    8     30 1:36:53  35.0     11    70 1:18:01  5:13         
   70     3:41:13 Brian Lansdowne         Belleville   2/5   M55 - 59      123    3    164   51:20  2:34    2     49 1:39:46  34.0     1     32 1:10:08  4:41         
   71     3:41:14 Graeme Skinner          Kingston     9/13  M25 - 29      176    8     87   38:50  1:57    7     78 1:43:50  32.7     9     72 1:18:35  5:15         
   72     3:41:15 Murray Legge            King         4/16  M50 - 54      165    7    122   43:30  2:11    3     53 1:40:34  33.7     4     64 1:17:12  5:09         
   73     3:41:26 Hugh Kendall            Whitby      14/24  M35 - 39      157    5     53   36:00  1:48    14    72 1:43:22  32.8     13    92 1:22:04  5:29         
   74     3:42:49 Ann Chapman             Ottawa       3/6   W40 - 44       81    2     79   38:19  1:55    3     70 1:43:01  32.9     3     88 1:21:31  5:27         
   75     3:43:02 Jane Howe               Trenton      1/10  W30 - 34       71    3     74   37:56  1:54    5    126 1:49:58  30.8     1     54 1:15:09  5:01         
   76     3:43:15 Chris Bemis             Oshawa      15/24  M35 - 39       39    19   110   42:01  2:07    17    89 1:45:07  32.3     9     59 1:16:08  5:05         
   77     3:44:24 Geoff Williams          Ottawa      10/18  M45 - 49      178    11    58   36:27  1:50    8     55 1:40:54  33.6     16   122 1:27:04  5:49         
   78     3:44:52 David Benwell           Santa Moni  12/24  M40 - 44       97    9     83   38:26  1:56    17   104 1:47:12  31.6     12    74 1:19:15  5:17         
   79     3:45:03 Jim Malekos             Kingston    11/18  M45 - 49       84    7     41   34:00  1:42    11    83 1:44:23  32.5     15   119 1:26:41  5:47         
   80     3:45:26 Bob Chiasson            Ottawa       1/7   M60 & Over    114    1     82   38:24  1:56    1    103 1:47:12  31.6     1     79 1:19:51  5:20         
   81     3:45:41 Joanne Tognarelli       Ottawa       3/9   W25 - 29      126    3     33   33:38  1:41    2     88 1:45:03  32.3     6    121 1:27:01  5:49         
   82     3:46:37 James Brockbank         Ottawa       5/16  M50 - 54      175    6    116   42:50  2:09    6     82 1:44:22  32.5     5     75 1:19:25  5:18         
   83     3:46:45 Jeff McCartney          Toronto     13/24  M40 - 44      187    12    97   40:02  2:01    14    77 1:43:43  32.7     13    98 1:23:01  5:33         
   84     3:47:12 Paula Hickman           Ottawa       1/2   W50 - 54      146    2    148   46:56  2:21    1    101 1:46:52  31.7     1     46 1:13:26  4:54         
   85     3:47:33 June Jenkins            Hamilton     1/6   W45 - 49      125    1     68   37:36  1:53    2    125 1:49:54  30.9     1     82 1:20:05  5:21         
   86     3:47:43 Jamie Young             Kingston    10/13  M25 - 29       96    10   141   45:45  2:18    9    108 1:47:41  31.5     5     49 1:14:18  4:58         
   87     3:48:21 Hendrik Saaltink        Cornwall    12/18  M45 - 49        6    13    81   38:23  1:56    13   115 1:48:40  31.2     11    87 1:21:19  5:26         
   88     3:48:58 Kyla Smith              Kingston     2/10  W30 - 34      161    9    129   44:07  2:13    1     71 1:43:06  32.9     5     91 1:21:46  5:28         
   89     3:49:08 DENNIS DRISCOLL         FENELON FA   6/16  M50 - 54      110    4     96   40:01  2:00    8     95 1:45:56  32.0     6     99 1:23:12  5:33         
   90     3:49:18 Frances Russell         Ottawa       4/6   W40 - 44      103    4     91   39:18  1:58    5    109 1:47:49  31.4     4     94 1:22:12  5:29         
   91     3:49:39 Tim Gillespie           Kingston    11/13  M25 - 29      147    7     77   38:16  1:55    10   120 1:49:18  31.0     10    93 1:22:07  5:29         
   92     3:49:41 Bob Joy                 Kingston     9/18  M30 - 34       58    11   108   41:47  2:06    12    90 1:45:17  32.2     8     96 1:22:38  5:31         
   93     3:49:50 Mark Angela             Aurora      16/24  M35 - 39      169    20   136   45:09  2:16    15    76 1:43:36  32.7     12    85 1:21:06  5:25         
   94     3:50:31 Curtis Oleschuk         Kingston    10/18  M30 - 34      180    13   117   42:52  2:09    8     40 1:38:22  34.5     12   132 1:29:18  5:58         
   95     3:50:33 Rebecca Orr             Toronto      3/10  W30 - 34      149    7    118   42:57  2:09    3    105 1:47:13  31.6     3     84 1:20:23  5:22         
   96     3:50:42 Glenda Clapham          Napanee      5/6   W40 - 44      102    5     95   39:55  2:00    4     97 1:46:27  31.9     5    103 1:24:20  5:38         
   97     3:50:54 Michael LeSage          Nobleton    13/18  M45 - 49       52    17   172   54:20  2:43    12    84 1:44:29  32.5     6     41 1:12:05  4:49         
   98     3:51:13 Michelle Lacroix        Orleans      4/9   W25 - 29       86    8     88   39:05  1:58    3    102 1:47:12  31.6     5    106 1:24:57  5:40         
   99     3:52:07 Alan Dillabough         Toronto     11/18  M30 - 34      142    12   115   42:48  2:09    13    94 1:45:54  32.0     10   100 1:23:27  5:34         
  100     3:52:22 Natalie Kennie          Toronto      4/10  W30 - 34      166    1     22   31:49  1:36    8    152 1:55:11  29.4     7    111 1:25:23  5:42         
  101     3:52:31 Nicole Nakatsu          Kingston     5/9   W25 - 29      179    7     78   38:18  1:55    7    157 1:56:16  29.2     3     69 1:17:58  5:12         
  102     3:52:48 Robert Sica             London      14/18  M45 - 49      120    12    63   37:00  1:51    15   129 1:50:24  30.7     14   112 1:25:25  5:42         
  103     3:53:24 Greg MORGANS            Baldwinsvi  15/18  M45 - 49       99    14   135   45:04  2:16    17   137 1:52:01  30.3     9     61 1:16:19  5:06         
  104     3:53:34 Michael Tyshenko        Kingston    17/24  M35 - 39      154    14    75   38:00  1:54    6     47 1:39:19  34.1     21   147 1:36:16  6:26         
  105     3:53:38 Karuna Govind           Scarboroug   5/10  W30 - 34      164    8    128   44:05  2:13    4    110 1:48:00  31.4     4     89 1:21:34  5:27         
  106     3:54:05 David Denison           Belleville  18/24  M35 - 39        9    21   137   45:19  2:16    9     57 1:41:24  33.4     16   124 1:27:23  5:50         
  107     3:54:35 Wayne Carpenter         Gananoque    1/1   M20 - 24      100    1    176   56:34  2:50    1     87 1:44:50  32.3     1     44 1:13:12  4:53         
  108     3:55:13 Andrea Stellmach        Nepean       6/10  W30 - 34      118    6    113   42:11  2:07    7    143 1:53:03  30.0     2     81 1:19:59  5:20         
  109     3:55:43 Amanda Ramayon          Whitby       2/4   W20 - 24      121    2     93   39:26  1:59    3    156 1:56:11  29.2     2     83 1:20:07  5:21         
  110     3:55:48 Jill Kapuscinski        Toronto      5/11  W35 - 39      144    7    132   44:44  2:15    4     98 1:46:30  31.8     7    104 1:24:35  5:39         
  111     3:55:52 Gale Quigley            Kingston     6/11  W35 - 39       10    10   163   50:52  2:33    5    100 1:46:46  31.8     6     71 1:18:14  5:13         
  112     3:56:09 Kathy Hawthorne         Shelburne    3/4   W20 - 24       38    3    100   40:28  2:02    2    113 1:48:24  31.3     3    123 1:27:17  5:50         
  113     3:56:24 Barry Campbell          RR # 1 Ver  14/24  M40 - 44       54    17   119   43:20  2:10    16    81 1:44:15  32.5     16   130 1:28:50  5:56         
  114     3:56:25 Kim Miroslavich         Brampton     7/10  W30 - 34       40    4    105   41:11  2:04    6    130 1:50:27  30.7     6    105 1:24:47  5:40         
  115     3:57:11 Annalisa Charron        Low          7/11  W35 - 39       74    5    121   43:28  2:11    7    114 1:48:39  31.2     8    107 1:25:05  5:41         
  116     3:57:31 Christian Bourget       Hull        12/18  M30 - 34       91    8     57   36:16  1:49    11    85 1:44:31  32.4     14   148 1:36:46  6:28         
  117     3:57:41 Murray Knowles          ottawa      19/24  M35 - 39       89    7     59   36:29  1:50    21   140 1:52:36  30.1     18   128 1:28:37  5:55         
  118     3:58:01 Alain Cyr               Brockville  15/24  M40 - 44       19    23   160   49:31  2:29    12    73 1:43:22  32.8     14   108 1:25:09  5:41         
  119     3:58:18 Sheryl Ross             Kingston     6/9   W25 - 29      170    1     25   32:21  1:38    9    173 2:06:15  26.9     4     78 1:19:43  5:19         
  120     3:58:20 Jay McIntosh            Kanata      20/24  M35 - 39       46    16    98   40:04  2:01    19   124 1:49:52  30.9     17   126 1:28:26  5:54         
  121     3:58:30 Suzanne Dostaler        Kingston     2/6   W45 - 49       56    4    155   47:38  2:23    1     92 1:45:35  32.1     3    110 1:25:18  5:42         
  122     3:59:16 Jim Elyot               Kingston    16/18  M45 - 49      155    16   156   48:00  2:24    18   148 1:54:00  29.7     10    65 1:17:16  5:10         
  123     3:59:34 Sham Srigobind          Thornhill   21/24  M35 - 39       33    15    76   38:02  1:55    20   133 1:50:47  30.6     19   136 1:30:47  6:04         
  124     3:59:35 Terry Jennings          Ottawa      16/24  M40 - 44        4    18   124   43:32  2:11    10    39 1:38:17  34.5     20   152 1:37:47  6:32         
  125     3:59:37 Morris O'Callaghan      Ottawa       3/5   M55 - 59       92    2     70   37:37  1:53    3    141 1:52:49  30.1     3    131 1:29:12  5:57         
  126     3:59:42 Julie Shelton           Milton       7/9   W25 - 29      130    4     35   33:42  1:42    6    144 1:53:08  30.0     7    142 1:32:53  6:12         
  127     4:00:23 Susanne Trerise         Moffat       3/6   W45 - 49      133    2     86   38:49  1:57    3    151 1:54:56  29.5     4    118 1:26:39  5:47         
  128     4:00:56 Caroline Stone          Ottawa       8/9   W25 - 29       22    6     60   36:31  1:50    5    127 1:50:09  30.8     8    144 1:34:16  6:18         
  129     4:00:58 Carol Ravnaas           Brockville   6/6   W40 - 44       21    6    104   40:58  2:03    6    111 1:48:05  31.4     6    139 1:31:57  6:08         
  130     4:01:20 Gerald Healey           Syracuse    17/24  M40 - 44       78    16   111   42:05  2:07    19   119 1:49:15  31.0     18   135 1:30:01  6:01         
  131     4:02:44 andrew plummer          Ottawa      13/18  M30 - 34       26    18   171   53:43  2:42    15   123 1:49:48  30.9     6     73 1:19:14  5:17         
  132     4:03:00 Mark Benson             RR3 Harrow   7/16  M50 - 54       17    5    112   42:07  2:07    10   139 1:52:28  30.1     7    127 1:28:26  5:54         
  133     4:03:15 Jason Chadwick          Napanee     12/13  M25 - 29       55    12   149   47:05  2:22    13   136 1:51:52  30.3     11   102 1:24:19  5:38         
  134     4:04:41 Tamara Baldwin          Brockville   8/10  W30 - 34      173    2     73   37:54  1:54    2     93 1:45:36  32.1     9    161 1:41:12  6:45         
  135     4:04:47 Greg Saxe               Ottawa      13/13  M25 - 29      127    11   143   45:50  2:18    11   121 1:49:29  31.0     13   133 1:29:29  5:58         
  136     4:05:59 Carol Sinclair          Stittsvill   4/6   W45 - 49       98    3    120   43:26  2:11    4    167 2:01:23  27.9     2     86 1:21:11  5:25         
  137     4:06:52 Chantal Mercier         Ottawa       9/10  W30 - 34       14    5    109   41:57  2:06    9    162 1:58:24  28.6     8    116 1:26:33  5:47         
  138     4:06:54 Brad Melville           Mississaug  18/24  M40 - 44      183    22   159   48:30  2:26    22   135 1:51:39  30.4     15   120 1:26:45  5:47         
  139     4:07:20 Denis Morel             Hartington  19/24  M40 - 44        2    20   138   45:26  2:17    23   138 1:52:21  30.2     17   134 1:29:34  5:59         
  140     4:08:34 Richelle Leck           Pickering    8/11  W35 - 39        7    6    123   43:31  2:11    8    159 1:56:49  29.0     10   125 1:28:16  5:54         
  141     4:09:14 Greg Kealey             Ottawa      20/24  M40 - 44       51    14   101   40:46  2:03    20   122 1:49:44  30.9     22   157 1:38:45  6:35         
  142     4:09:23 Paul Schwartzentruber   Pembroke     8/16  M50 - 54       72    10   153   47:30  2:23    9    132 1:50:42  30.6     9    138 1:31:12  6:05         
  143     4:11:08 Jeremy Baird            Kingston     1/1   Junior Men     50    1    130   44:16  2:13    1    165 2:00:59  28.0     1    113 1:25:54  5:44         
  144     4:11:46 Ferenc M Lukacsovics    Timmins     21/24  M40 - 44      150    19   127   43:43  2:12    21   128 1:50:13  30.8     21   153 1:37:51  6:32         
  145     4:11:57 Doug Campbell           Niles       22/24  M35 - 39       12    9     65   37:20  1:52    12    65 1:42:26  33.1     22   172 1:52:11  7:29         
  146     4:13:38 Chris Clarkson          Jamesville  22/24  M40 - 44       13    13    99   40:12  2:01    15    80 1:44:03  32.6     23   170 1:49:24  7:18         
  147     4:13:41 David Lamy              Middletown   9/16  M50 - 54       43    14   173   55:10  2:46    5     74 1:43:23  32.8     10   145 1:35:09  6:21         
  148     4:14:14 Arthur Tateishi         Toronto     14/18  M30 - 34      140    17   147   46:45  2:21    10    61 1:41:50  33.3     17   168 1:45:39  7:03         
  149     4:15:17 Michael Cooper          Mississaug  15/18  M30 - 34      167    10   106   41:16  2:04    14   116 1:48:43  31.2     16   167 1:45:18  7:02         
  150     4:15:47 Blaine Primeau          Kingston    16/18  M30 - 34      172    15   134   45:02  2:16    18   150 1:54:54  29.5     13   146 1:35:52  6:24         
  151     4:17:32 Trevor Vowles           Kingston     4/5   M55 - 59      159    4    166   51:45  2:36    4    147 1:53:48  29.8     4    140 1:32:00  6:08         
  152     4:17:54 Peter Doubleday         Southern P  10/16  M50 - 54      107    11   165   51:38  2:35    14   160 1:57:30  28.9     8    129 1:28:48  5:56         
  153     4:17:55 Dwight McDougall        Kanata      11/16  M50 - 54      189    15   175   56:17  2:49    4     69 1:42:57  32.9     12   156 1:38:42  6:35         
  154     4:18:01 Melanie Kamphuis        Stratford    9/11  W35 - 39      111    9    158   48:29  2:26    10   170 2:04:17  27.3     9    109 1:25:15  5:41         
  155     4:18:31 Lisa Kunow              Oakville    10/11  W35 - 39       32    11   168   52:07  2:37    11   176 2:10:27  26.0     4     58 1:15:58  5:04         
  156     4:18:32 Dale Costello           Ottawa      17/18  M30 - 34      145    16   145   46:11  2:19    16   146 1:53:44  29.8     15   155 1:38:38  6:35         
  157     4:19:38 Trish Massart           Nepean      11/11  W35 - 39      101    8    133   44:46  2:15    9    161 1:57:33  28.8     11   150 1:37:20  6:30         
  158     4:23:03 craig crute             Toronto     17/18  M45 - 49      162    15   154   47:37  2:23    16   134 1:51:23  30.4     18   165 1:44:04  6:57         
  159     4:23:04 Jim Nelson              Oakville    12/16  M50 - 54      137    8    139   45:28  2:17    11   142 1:52:57  30.0     15   166 1:44:40  6:59         
  160     4:23:04 Peter Mammone           Brampton    18/18  M45 - 49       24    18   174   55:58  2:48    14   117 1:48:58  31.1     17   154 1:38:08  6:33         
  161     4:26:02 Andrew Stoness          Calgary     23/24  M35 - 39       44    23   178   59:00  2:57    22   145 1:53:22  29.9     20   143 1:33:40  6:15         
  162     4:26:08 Clarke LeBlanc          Toronto     23/24  M40 - 44       16    24   162   50:01  2:31    24   163 1:59:13  28.4     19   149 1:36:55  6:28         
  163     4:26:11 Katie Auger             Kingston     4/4   W20 - 24      141    4    146   46:13  2:19    4    175 2:07:32  26.6     4    141 1:32:27  6:10         
  164     4:27:00 David Lyon              Kingston    13/16  M50 - 54      134    12   169   52:11  2:37    12   153 1:55:16  29.4     13   159 1:39:34  6:39         
  165     4:27:22 Don Crone               Godfrey      2/7   M60 & Over     41    3    125   43:38  2:11    4    166 2:01:10  28.0     5    163 1:42:35  6:51         
  166     4:27:24 J. Mark RIOPELLE        Toronto     18/18  M30 - 34      153    9     90   39:14  1:58    17   149 1:54:49  29.5     18   174 1:53:22  7:34         
  167     4:27:26 Robert McCaldon         Hartington   3/7   M60 & Over     27    7    161   49:59  2:30    3    158 1:56:38  29.1     4    160 1:40:50  6:44         
  168     4:27:54 samuel Clemence         Syracuse     4/7   M60 & Over     90    2    114   42:23  2:08    6    174 2:06:40  26.8     3    158 1:38:52  6:36         
  169     4:30:13 Courtney Warner         Georgetown   5/7   M60 & Over    163    5    151   47:20  2:22    7    178 2:11:50  25.7     2    137 1:31:04  6:05         
  170     4:30:16 Anna Morris             Milton       2/2   W50 - 54       64    1     80   38:21  1:56    2    154 1:55:30  29.4     2    175 1:56:26  7:46         
  171     4:34:44 Sarah Johnston          Toronto      9/9   W25 - 29       25    9    126   43:39  2:11    8    169 2:04:04  27.3     9    169 1:47:01  7:09         
  172     4:41:43 John Hall               Kingston    14/16  M50 - 54      135    16   179 1:08:06  3:25    15   164 1:59:15  28.4     11   151 1:37:20  6:30    2:57 
  173     4:41:51 Ross Maddams            Kingston    15/16  M50 - 54      190    13   170   52:32  2:38    16   171 2:05:53  26.9     14   164 1:43:27  6:54         
  174     4:51:27 Paul Hadley             Toronto     24/24  M35 - 39       82    22   167   51:58  2:36    23   172 2:06:10  26.9     23   173 1:53:19  7:34         
  175     4:52:50 Shelley McDonald        Kanata      10/10  W30 - 34       42    10   152   47:27  2:23    10   179 2:14:01  25.3     10   171 1:51:23  7:26         
  176     4:55:27 David Maskell           Hartington   6/7   M60 & Over     83    6    157   48:15  2:25    5    168 2:02:01  27.8     6    176 2:05:12  8:21         
  177     5:17:37 Jane McCaldon           Hartington   1/1   W60 & Over     28    1    177   57:26  2:53    1    177 2:10:34  26.0     1    177 2:10:35  8:43    0:57 
  178     5:20:05 Michael Yearsley        Kingston     5/5   M55 - 59       53    5    182 1:21:15  4:04    5    180 2:17:10  24.7     5    162 1:41:40  6:47         
  179     6:00:52 Rebecca Simpson         Toronto      5/6   W45 - 49       94    6    181 1:16:10  3:49                               5                              
  180     6:00:52 Brenda Simpson          Toronto      6/6   W45 - 49       95    5    180 1:16:07  3:49                               6                              
  181             Grant Thompson          Orleans     24/24  M40 - 44      156    8     64   37:19  1:52    5     20 1:35:04  35.7                                    
  182             Tom Collins             London       7/7   M60 & Over      1    4    140   45:39  2:17    2    107 1:47:38  31.5                                    
  183             Ken Sullivan            Kuwait Cit  16/16  M50 - 54       57    9    142   45:47  2:18    13   155 1:55:38  29.3